Virtual Airlines Manager

 METAR AND TAF INFORMATION
METAR FOR GMMN
ADDS - METARS form results

(0428 UTC 23 October 2017)
Data provider http://aviationweather.gov/adds/metars/
 
METAR text: GMMN 230400Z 05007KT 1400 R35R/1700VP2000D BR BKN006 18/18 Q1020 NOSIG
Conditions at: GMMN (NOUASSEUR/CASABL, MA) observed 0400 UTC 23 October 2017
Temperature: 18.0°C (64°F)
Dewpoint: 18.0°C (64°F) [RH = 100%]
Pressure (altimeter): 30.12 inches Hg (1020.0 mb)
Winds: from the NE (50 degrees) at 8 MPH (7 knots; 3.6 m/s)
Visibility: 0.87 miles (1.40 km)
Ceiling: 600 feet AGL
Clouds: broken clouds at 600 feet AGL
Weather: BR  (mist)

METAR text: GMMN 230341Z 05007KT 0400 FG BKN006 18/18 Q1020 NOSIG
Conditions at: GMMN (NOUASSEUR/CASABL, MA) observed 0341 UTC 23 October 2017
Temperature: 18.0°C (64°F)
Dewpoint: 18.0°C (64°F) [RH = 100%]
Pressure (altimeter): 30.12 inches Hg (1020.0 mb)
Winds: from the NE (50 degrees) at 8 MPH (7 knots; 3.6 m/s)
Visibility: 0.25 miles (0.40 km)
Ceiling: 600 feet AGL
Clouds: broken clouds at 600 feet AGL
Weather: FG  (fog)

Forecast for: GMMN (NOUASSEUR/CASABL, MA)
Text: TAF GMMN 222300Z 2300/2406 04004KT 6000 SCT016
Forecast period: 0000 to 1000 UTC 23 October 2017
Forecast type: FROM: standard forecast or significant change
Winds: from the NE (40 degrees) at 5 MPH (4 knots; 2.1 m/s)
Visibility: 4 miles (6 km)
Clouds: scattered clouds at 1600 feet AGL
Weather: no significant weather forecast for this period
Text: PROB40
Forecast period: 0200 to 0800 UTC 24 October 2017
Forecast type: TEMPORARY: The following changes expected for less than half the time period
Winds: variable direction winds at 2 MPH (2 knots; 1.0 m/s)
Visibility: 1.86 miles (2.99 km)
Clouds: scattered clouds at 800 feet AGL
Weather: BR  (mist)
Text: TEMPO 2402/2408 VRB02KT 3000 BR SCT008
Forecast period: 1000 UTC 23 October 2017 to 0600 UTC 24 October 2017
Forecast type: BECOMING: Conditions expected to become as follows by 1200 UTC 23 October 2017
Winds: from the N (360 degrees) at 14 MPH (12 knots; 6.2 m/s)
Visibility: 6 or more miles (10+ km)
Weather: NSW  (no significant weather)

 AIRPORT MAP

 RUNWAY INFORMATION
Runway 17L Runway length 12205 ft Runway width 148 ft
Runway elevation 633 ft Runway displaced threshold 0 ft Runway heading 164
Runway 35R Runway length 12205 ft Runway width 148 ft
Runway elevation 656 ft Runway displaced threshold 0 ft Runway heading 344
Runway 17R Runway length 12205 ft Runway width 148 ft
Runway elevation 636 ft Runway displaced threshold 0 ft Runway heading 164
Runway 35L Runway length 12205 ft Runway width 148 ft
Runway elevation 656 ft Runway displaced threshold 0 ft Runway heading 344

 AIRPORT FREQUENCIES
Type APP Name APP Frequency 121.3 MHZ
Type ATIS Name ATIS Frequency 126.4 MHZ
Type TWR Name TWR Frequency 118.5 MHZ

 AIRPORT NEAR NAVIGATION AIDS
Type VOR-DME Name Casablanca Frequency 114000 KHZ



Powered by Virtual Airlines Manager [v2.6.2]